sensor_id;sensor_type;location;lat;lon;timestamp;P1;durP1;ratioP1;P2;durP2;ratioP2
16522;SDS011;19889;52.546;13.348;2023-04-29T00:01:22;6.40;;;5.07;;
16522;SDS011;19889;52.546;13.348;2023-04-29T00:03:50;6.55;;;5.30;;
16522;SDS011;19889;52.546;13.348;2023-04-29T00:06:17;7.27;;;4.93;;
16522;SDS011;19889;52.546;13.348;2023-04-29T00:08:44;6.30;;;5.10;;
16522;SDS011;19889;52.546;13.348;2023-04-29T00:11:11;8.45;;;6.80;;
16522;SDS011;19889;52.546;13.348;2023-04-29T00:13:38;8.18;;;5.30;;
16522;SDS011;19889;52.546;13.348;2023-04-29T00:16:06;6.97;;;4.90;;
16522;SDS011;19889;52.546;13.348;2023-04-29T00:18:34;6.18;;;5.53;;
16522;SDS011;19889;52.546;13.348;2023-04-29T00:21:03;6.82;;;5.40;;
16522;SDS011;19889;52.546;13.348;2023-04-29T00:23:31;7.13;;;5.57;;
16522;SDS011;19889;52.546;13.348;2023-04-29T00:25:58;6.50;;;5.00;;
16522;SDS011;19889;52.546;13.348;2023-04-29T00:28:25;5.40;;;4.90;;
16522;SDS011;19889;52.546;13.348;2023-04-29T00:30:52;5.53;;;4.75;;
16522;SDS011;19889;52.546;13.348;2023-04-29T00:33:20;6.45;;;5.30;;
16522;SDS011;19889;52.546;13.348;2023-04-29T00:35:47;11.18;;;6.00;;
16522;SDS011;19889;52.546;13.348;2023-04-29T00:38:15;6.60;;;5.43;;
16522;SDS011;19889;52.546;13.348;2023-04-29T00:40:43;7.15;;;5.55;;
16522;SDS011;19889;52.546;13.348;2023-04-29T00:43:10;7.03;;;5.30;;
16522;SDS011;19889;52.546;13.348;2023-04-29T00:45:37;6.43;;;5.15;;
16522;SDS011;19889;52.546;13.348;2023-04-29T00:48:04;5.95;;;5.30;;
16522;SDS011;19889;52.546;13.348;2023-04-29T00:50:31;7.82;;;5.20;;
16522;SDS011;19889;52.546;13.348;2023-04-29T00:52:59;6.23;;;5.47;;
16522;SDS011;19889;52.546;13.348;2023-04-29T00:55:27;8.40;;;5.50;;
16522;SDS011;19889;52.546;13.348;2023-04-29T00:57:55;7.43;;;5.90;;
16522;SDS011;19889;52.546;13.348;2023-04-29T01:00:23;6.57;;;5.05;;
16522;SDS011;19889;52.546;13.348;2023-04-29T01:02:51;7.25;;;5.57;;
16522;SDS011;19889;52.546;13.348;2023-04-29T01:05:19;5.47;;;4.97;;
16522;SDS011;19889;52.546;13.348;2023-04-29T01:07:47;6.28;;;5.45;;
16522;SDS011;19889;52.546;13.348;2023-04-29T01:10:26;7.13;;;5.32;;
16522;SDS011;19889;52.546;13.348;2023-04-29T01:13:00;8.63;;;6.25;;
16522;SDS011;19889;52.546;13.348;2023-04-29T01:15:34;7.20;;;5.90;;
16522;SDS011;19889;52.546;13.348;2023-04-29T01:18:09;13.53;;;8.13;;
16522;SDS011;19889;52.546;13.348;2023-04-29T01:20:39;8.77;;;7.20;;
16522;SDS011;19889;52.546;13.348;2023-04-29T01:23:09;8.68;;;6.35;;
16522;SDS011;19889;52.546;13.348;2023-04-29T01:25:39;8.65;;;6.60;;
16522;SDS011;19889;52.546;13.348;2023-04-29T01:28:15;6.75;;;6.05;;
16522;SDS011;19889;52.546;13.348;2023-04-29T01:30:55;8.70;;;6.40;;
16522;SDS011;19889;52.546;13.348;2023-04-29T01:33:28;6.13;;;5.53;;
16522;SDS011;19889;52.546;13.348;2023-04-29T01:36:07;6.97;;;6.05;;
16522;SDS011;19889;52.546;13.348;2023-04-29T01:38:56;6.70;;;6.10;;
16522;SDS011;19889;52.546;13.348;2023-04-29T01:41:34;8.97;;;6.97;;
16522;SDS011;19889;52.546;13.348;2023-04-29T01:44:17;8.47;;;6.57;;
16522;SDS011;19889;52.546;13.348;2023-04-29T01:46:48;11.20;;;7.53;;
16522;SDS011;19889;52.546;13.348;2023-04-29T01:49:19;7.33;;;6.37;;
16522;SDS011;19889;52.546;13.348;2023-04-29T01:51:46;9.10;;;7.10;;
16522;SDS011;19889;52.546;13.348;2023-04-29T01:54:13;9.97;;;6.50;;
16522;SDS011;19889;52.546;13.348;2023-04-29T01:56:42;6.60;;;5.90;;
16522;SDS011;19889;52.546;13.348;2023-04-29T01:59:20;8.55;;;6.78;;
16522;SDS011;19889;52.546;13.348;2023-04-29T02:01:57;8.85;;;6.97;;
16522;SDS011;19889;52.546;13.348;2023-04-29T02:04:25;10.17;;;6.90;;
16522;SDS011;19889;52.546;13.348;2023-04-29T02:06:53;9.82;;;7.18;;
16522;SDS011;19889;52.546;13.348;2023-04-29T02:09:20;8.90;;;7.13;;
16522;SDS011;19889;52.546;13.348;2023-04-29T02:11:54;8.17;;;6.93;;
16522;SDS011;19889;52.546;13.348;2023-04-29T02:14:21;8.43;;;6.73;;
16522;SDS011;19889;52.546;13.348;2023-04-29T02:16:48;9.10;;;7.60;;
16522;SDS011;19889;52.546;13.348;2023-04-29T02:19:15;9.80;;;7.55;;
16522;SDS011;19889;52.546;13.348;2023-04-29T02:21:42;8.50;;;7.60;;
16522;SDS011;19889;52.546;13.348;2023-04-29T02:24:09;9.83;;;7.97;;
16522;SDS011;19889;52.546;13.348;2023-04-29T02:26:36;7.83;;;7.03;;
16522;SDS011;19889;52.546;13.348;2023-04-29T02:29:05;8.40;;;7.47;;
16522;SDS011;19889;52.546;13.348;2023-04-29T02:31:32;8.93;;;7.87;;
16522;SDS011;19889;52.546;13.348;2023-04-29T02:33:59;8.77;;;7.87;;
16522;SDS011;19889;52.546;13.348;2023-04-29T02:36:26;9.93;;;8.00;;
16522;SDS011;19889;52.546;13.348;2023-04-29T02:38:53;9.43;;;7.60;;
16522;SDS011;19889;52.546;13.348;2023-04-29T02:41:20;11.07;;;7.70;;
16522;SDS011;19889;52.546;13.348;2023-04-29T02:43:47;9.20;;;7.87;;
16522;SDS011;19889;52.546;13.348;2023-04-29T02:46:16;9.98;;;7.78;;
16522;SDS011;19889;52.546;13.348;2023-04-29T02:48:43;10.67;;;8.10;;
16522;SDS011;19889;52.546;13.348;2023-04-29T02:51:11;11.60;;;9.07;;
16522;SDS011;19889;52.546;13.348;2023-04-29T02:53:38;9.27;;;8.37;;
16522;SDS011;19889;52.546;13.348;2023-04-29T02:56:05;9.87;;;8.10;;
16522;SDS011;19889;52.546;13.348;2023-04-29T02:58:32;10.65;;;8.70;;
16522;SDS011;19889;52.546;13.348;2023-04-29T03:01:00;10.70;;;8.60;;
16522;SDS011;19889;52.546;13.348;2023-04-29T03:03:29;9.75;;;8.57;;
16522;SDS011;19889;52.546;13.348;2023-04-29T03:05:56;15.23;;;10.20;;
16522;SDS011;19889;52.546;13.348;2023-04-29T03:08:23;11.60;;;9.03;;
16522;SDS011;19889;52.546;13.348;2023-04-29T03:10:50;12.00;;;9.93;;
16522;SDS011;19889;52.546;13.348;2023-04-29T03:13:18;10.83;;;9.70;;
16522;SDS011;19889;52.546;13.348;2023-04-29T03:15:45;13.43;;;10.20;;
16522;SDS011;19889;52.546;13.348;2023-04-29T03:18:12;12.87;;;9.80;;
16522;SDS011;19889;52.546;13.348;2023-04-29T03:20:40;10.77;;;9.67;;
16522;SDS011;19889;52.546;13.348;2023-04-29T03:23:07;12.67;;;10.07;;
16522;SDS011;19889;52.546;13.348;2023-04-29T03:25:35;15.73;;;10.53;;
16522;SDS011;19889;52.546;13.348;2023-04-29T03:28:02;11.87;;;10.53;;
16522;SDS011;19889;52.546;13.348;2023-04-29T03:30:30;12.10;;;10.80;;
16522;SDS011;19889;52.546;13.348;2023-04-29T03:32:57;13.97;;;10.57;;
16522;SDS011;19889;52.546;13.348;2023-04-29T03:35:25;13.13;;;11.20;;
16522;SDS011;19889;52.546;13.348;2023-04-29T03:38:26;13.18;;;10.35;;
16522;SDS011;19889;52.546;13.348;2023-04-29T03:40:54;13.90;;;11.73;;
16522;SDS011;19889;52.546;13.348;2023-04-29T03:43:21;16.43;;;10.97;;
16522;SDS011;19889;52.546;13.348;2023-04-29T03:45:48;12.77;;;10.80;;
16522;SDS011;19889;52.546;13.348;2023-04-29T03:48:18;13.97;;;11.27;;
16522;SDS011;19889;52.546;13.348;2023-04-29T03:50:45;14.77;;;12.23;;
16522;SDS011;19889;52.546;13.348;2023-04-29T03:53:13;13.80;;;12.27;;
16522;SDS011;19889;52.546;13.348;2023-04-29T03:55:42;16.83;;;13.03;;
16522;SDS011;19889;52.546;13.348;2023-04-29T03:58:09;17.03;;;13.23;;
16522;SDS011;19889;52.546;13.348;2023-04-29T04:00:37;13.63;;;12.13;;
16522;SDS011;19889;52.546;13.348;2023-04-29T04:03:09;15.80;;;13.83;;
16522;SDS011;19889;52.546;13.348;2023-04-29T04:05:37;14.57;;;12.10;;
16522;SDS011;19889;52.546;13.348;2023-04-29T04:08:08;16.00;;;13.20;;
16522;SDS011;19889;52.546;13.348;2023-04-29T04:10:35;14.33;;;12.83;;
16522;SDS011;19889;52.546;13.348;2023-04-29T04:13:11;15.70;;;12.97;;
16522;SDS011;19889;52.546;13.348;2023-04-29T04:15:41;13.27;;;11.80;;
16522;SDS011;19889;52.546;13.348;2023-04-29T04:18:08;14.57;;;13.07;;
16522;SDS011;19889;52.546;13.348;2023-04-29T04:20:35;15.77;;;12.93;;
16522;SDS011;19889;52.546;13.348;2023-04-29T04:23:03;15.63;;;12.95;;
16522;SDS011;19889;52.546;13.348;2023-04-29T04:25:30;16.98;;;13.50;;
16522;SDS011;19889;52.546;13.348;2023-04-29T04:28:13;15.27;;;13.23;;
16522;SDS011;19889;52.546;13.348;2023-04-29T04:30:57;16.03;;;13.57;;
16522;SDS011;19889;52.546;13.348;2023-04-29T04:33:24;15.30;;;13.10;;
16522;SDS011;19889;52.546;13.348;2023-04-29T04:35:52;18.53;;;13.93;;
16522;SDS011;19889;52.546;13.348;2023-04-29T04:38:19;15.25;;;13.52;;
16522;SDS011;19889;52.546;13.348;2023-04-29T04:40:49;17.73;;;13.97;;
16522;SDS011;19889;52.546;13.348;2023-04-29T04:43:38;17.27;;;14.50;;
16522;SDS011;19889;52.546;13.348;2023-04-29T04:46:13;18.30;;;14.47;;
16522;SDS011;19889;52.546;13.348;2023-04-29T04:48:51;17.93;;;13.97;;
16522;SDS011;19889;52.546;13.348;2023-04-29T04:51:18;20.73;;;14.70;;
16522;SDS011;19889;52.546;13.348;2023-04-29T04:53:46;17.10;;;13.57;;
16522;SDS011;19889;52.546;13.348;2023-04-29T04:56:21;19.80;;;15.10;;
16522;SDS011;19889;52.546;13.348;2023-04-29T04:58:51;20.83;;;15.05;;
16522;SDS011;19889;52.546;13.348;2023-04-29T05:01:18;19.02;;;14.70;;
16522;SDS011;19889;52.546;13.348;2023-04-29T05:03:45;18.30;;;15.23;;
16522;SDS011;19889;52.546;13.348;2023-04-29T05:06:12;19.07;;;14.90;;
16522;SDS011;19889;52.546;13.348;2023-04-29T05:08:43;19.48;;;15.52;;
16522;SDS011;19889;52.546;13.348;2023-04-29T05:11:15;20.70;;;16.20;;
16522;SDS011;19889;52.546;13.348;2023-04-29T05:13:46;21.53;;;15.77;;
16522;SDS011;19889;52.546;13.348;2023-04-29T05:16:14;18.13;;;14.73;;
16522;SDS011;19889;52.546;13.348;2023-04-29T05:18:44;19.40;;;15.73;;
16522;SDS011;19889;52.546;13.348;2023-04-29T05:21:12;19.83;;;15.43;;
16522;SDS011;19889;52.546;13.348;2023-04-29T05:23:39;19.80;;;15.23;;
16522;SDS011;19889;52.546;13.348;2023-04-29T05:26:07;19.60;;;14.90;;
16522;SDS011;19889;52.546;13.348;2023-04-29T05:28:35;19.40;;;15.20;;
16522;SDS011;19889;52.546;13.348;2023-04-29T05:31:02;16.73;;;14.13;;
16522;SDS011;19889;52.546;13.348;2023-04-29T05:33:31;18.20;;;14.57;;
16522;SDS011;19889;52.546;13.348;2023-04-29T05:35:59;17.57;;;14.70;;
16522;SDS011;19889;52.546;13.348;2023-04-29T05:38:26;18.57;;;14.67;;
16522;SDS011;19889;52.546;13.348;2023-04-29T05:41:01;20.63;;;14.60;;
16522;SDS011;19889;52.546;13.348;2023-04-29T05:43:59;18.00;;;13.30;;
16522;SDS011;19889;52.546;13.348;2023-04-29T05:46:26;17.40;;;13.93;;
16522;SDS011;19889;52.546;13.348;2023-04-29T05:48:54;19.10;;;15.10;;
16522;SDS011;19889;52.546;13.348;2023-04-29T05:51:21;18.63;;;14.55;;
16522;SDS011;19889;52.546;13.348;2023-04-29T05:53:48;17.98;;;14.32;;
16522;SDS011;19889;52.546;13.348;2023-04-29T05:56:16;18.63;;;14.27;;
16522;SDS011;19889;52.546;13.348;2023-04-29T05:58:44;19.83;;;14.67;;
16522;SDS011;19889;52.546;13.348;2023-04-29T06:01:11;17.83;;;14.00;;
16522;SDS011;19889;52.546;13.348;2023-04-29T06:03:38;18.80;;;15.13;;
16522;SDS011;19889;52.546;13.348;2023-04-29T06:06:33;21.67;;;16.17;;
16522;SDS011;19889;52.546;13.348;2023-04-29T06:09:15;17.87;;;14.10;;
16522;SDS011;19889;52.546;13.348;2023-04-29T06:11:44;19.43;;;14.93;;
16522;SDS011;19889;52.546;13.348;2023-04-29T06:14:11;19.23;;;13.75;;
16522;SDS011;19889;52.546;13.348;2023-04-29T06:16:39;18.83;;;14.40;;
16522;SDS011;19889;52.546;13.348;2023-04-29T06:19:07;20.70;;;15.17;;
16522;SDS011;19889;52.546;13.348;2023-04-29T06:21:35;20.93;;;15.07;;
16522;SDS011;19889;52.546;13.348;2023-04-29T06:24:02;20.67;;;14.38;;
16522;SDS011;19889;52.546;13.348;2023-04-29T06:26:29;15.17;;;12.67;;
16522;SDS011;19889;52.546;13.348;2023-04-29T06:28:57;17.83;;;13.20;;
16522;SDS011;19889;52.546;13.348;2023-04-29T06:31:24;18.50;;;13.15;;
16522;SDS011;19889;52.546;13.348;2023-04-29T06:33:54;18.67;;;13.47;;
16522;SDS011;19889;52.546;13.348;2023-04-29T06:36:22;15.30;;;12.80;;
16522;SDS011;19889;52.546;13.348;2023-04-29T06:39:10;19.83;;;15.53;;
16522;SDS011;19889;52.546;13.348;2023-04-29T06:42:09;18.80;;;13.27;;
16522;SDS011;19889;52.546;13.348;2023-04-29T06:44:54;16.20;;;12.60;;
16522;SDS011;19889;52.546;13.348;2023-04-29T06:48:00;16.92;;;12.20;;
16522;SDS011;19889;52.546;13.348;2023-04-29T06:50:37;14.65;;;11.07;;
16522;SDS011;19889;52.546;13.348;2023-04-29T06:53:05;15.55;;;12.25;;
16522;SDS011;19889;52.546;13.348;2023-04-29T06:55:34;15.00;;;11.87;;
16522;SDS011;19889;52.546;13.348;2023-04-29T06:58:02;13.00;;;10.60;;
16522;SDS011;19889;52.546;13.348;2023-04-29T07:00:29;14.97;;;11.57;;
16522;SDS011;19889;52.546;13.348;2023-04-29T07:02:56;14.60;;;11.57;;
16522;SDS011;19889;52.546;13.348;2023-04-29T07:05:23;17.87;;;11.60;;
16522;SDS011;19889;52.546;13.348;2023-04-29T07:07:50;17.13;;;12.13;;
16522;SDS011;19889;52.546;13.348;2023-04-29T07:10:17;15.60;;;11.23;;
16522;SDS011;19889;52.546;13.348;2023-04-29T07:12:46;15.23;;;11.20;;
16522;SDS011;19889;52.546;13.348;2023-04-29T07:15:14;17.33;;;12.43;;
16522;SDS011;19889;52.546;13.348;2023-04-29T07:17:41;17.30;;;12.03;;
16522;SDS011;19889;52.546;13.348;2023-04-29T07:20:08;17.33;;;12.53;;
16522;SDS011;19889;52.546;13.348;2023-04-29T07:22:36;19.07;;;13.27;;
16522;SDS011;19889;52.546;13.348;2023-04-29T07:25:03;18.75;;;12.93;;
16522;SDS011;19889;52.546;13.348;2023-04-29T07:27:31;17.07;;;12.83;;
16522;SDS011;19889;52.546;13.348;2023-04-29T07:30:00;19.80;;;14.30;;
16522;SDS011;19889;52.546;13.348;2023-04-29T07:32:28;17.53;;;14.13;;
16522;SDS011;19889;52.546;13.348;2023-04-29T07:34:56;17.67;;;13.20;;
16522;SDS011;19889;52.546;13.348;2023-04-29T07:37:23;18.90;;;14.50;;
16522;SDS011;19889;52.546;13.348;2023-04-29T07:39:50;19.80;;;14.40;;
16522;SDS011;19889;52.546;13.348;2023-04-29T07:42:17;21.60;;;14.02;;
16522;SDS011;19889;52.546;13.348;2023-04-29T07:44:44;20.17;;;13.87;;
16522;SDS011;19889;52.546;13.348;2023-04-29T07:47:13;15.90;;;13.07;;
16522;SDS011;19889;52.546;13.348;2023-04-29T07:49:39;14.32;;;12.02;;
16522;SDS011;19889;52.546;13.348;2023-04-29T07:52:07;13.43;;;10.60;;
16522;SDS011;19889;52.546;13.348;2023-04-29T07:54:34;13.97;;;9.87;;
16522;SDS011;19889;52.546;13.348;2023-04-29T07:57:01;12.13;;;9.67;;
16522;SDS011;19889;52.546;13.348;2023-04-29T07:59:29;10.02;;;8.75;;
16522;SDS011;19889;52.546;13.348;2023-04-29T08:01:56;11.13;;;8.93;;
16522;SDS011;19889;52.546;13.348;2023-04-29T08:04:24;10.35;;;8.73;;
16522;SDS011;19889;52.546;13.348;2023-04-29T08:07:05;9.83;;;8.57;;
16522;SDS011;19889;52.546;13.348;2023-04-29T08:09:34;9.23;;;8.10;;
16522;SDS011;19889;52.546;13.348;2023-04-29T08:12:02;12.90;;;10.17;;
16522;SDS011;19889;52.546;13.348;2023-04-29T08:14:30;10.17;;;8.90;;
16522;SDS011;19889;52.546;13.348;2023-04-29T08:16:58;10.33;;;9.10;;
16522;SDS011;19889;52.546;13.348;2023-04-29T08:19:27;10.43;;;8.80;;
16522;SDS011;19889;52.546;13.348;2023-04-29T08:21:53;9.67;;;8.03;;
16522;SDS011;19889;52.546;13.348;2023-04-29T08:24:21;11.85;;;8.20;;
16522;SDS011;19889;52.546;13.348;2023-04-29T08:26:48;9.27;;;7.83;;
16522;SDS011;19889;52.546;13.348;2023-04-29T08:29:15;11.80;;;9.60;;
16522;SDS011;19889;52.546;13.348;2023-04-29T08:31:42;9.97;;;8.97;;
16522;SDS011;19889;52.546;13.348;2023-04-29T08:34:09;12.17;;;10.30;;
16522;SDS011;19889;52.546;13.348;2023-04-29T08:36:38;9.73;;;8.77;;
16522;SDS011;19889;52.546;13.348;2023-04-29T08:39:05;11.53;;;10.33;;
16522;SDS011;19889;52.546;13.348;2023-04-29T08:41:33;9.80;;;8.80;;
16522;SDS011;19889;52.546;13.348;2023-04-29T08:44:02;10.60;;;9.10;;
16522;SDS011;19889;52.546;13.348;2023-04-29T08:46:28;11.97;;;9.60;;
16522;SDS011;19889;52.546;13.348;2023-04-29T08:48:56;13.47;;;9.00;;
16522;SDS011;19889;52.546;13.348;2023-04-29T08:51:24;11.97;;;9.50;;
16522;SDS011;19889;52.546;13.348;2023-04-29T08:53:53;12.40;;;9.60;;
16522;SDS011;19889;52.546;13.348;2023-04-29T08:56:22;12.23;;;9.17;;
16522;SDS011;19889;52.546;13.348;2023-04-29T08:58:49;15.63;;;11.00;;
16522;SDS011;19889;52.546;13.348;2023-04-29T09:01:18;12.87;;;10.23;;
16522;SDS011;19889;52.546;13.348;2023-04-29T09:03:48;12.80;;;10.67;;
16522;SDS011;19889;52.546;13.348;2023-04-29T09:06:19;13.43;;;10.40;;
16522;SDS011;19889;52.546;13.348;2023-04-29T09:08:46;14.15;;;11.02;;
16522;SDS011;19889;52.546;13.348;2023-04-29T09:11:15;13.37;;;11.10;;
16522;SDS011;19889;52.546;13.348;2023-04-29T09:13:42;14.60;;;12.03;;
16522;SDS011;19889;52.546;13.348;2023-04-29T09:16:09;14.40;;;11.47;;
16522;SDS011;19889;52.546;13.348;2023-04-29T09:18:40;15.20;;;12.67;;
16522;SDS011;19889;52.546;13.348;2023-04-29T09:21:11;16.10;;;11.83;;
16522;SDS011;19889;52.546;13.348;2023-04-29T09:23:40;18.43;;;12.00;;
16522;SDS011;19889;52.546;13.348;2023-04-29T09:26:07;16.93;;;12.90;;
16522;SDS011;19889;52.546;13.348;2023-04-29T09:28:35;14.43;;;12.60;;
16522;SDS011;19889;52.546;13.348;2023-04-29T09:31:04;17.60;;;13.70;;
16522;SDS011;19889;52.546;13.348;2023-04-29T09:33:45;21.63;;;15.73;;
16522;SDS011;19889;52.546;13.348;2023-04-29T09:36:30;16.77;;;12.87;;
16522;SDS011;19889;52.546;13.348;2023-04-29T09:39:01;20.83;;;14.77;;
16522;SDS011;19889;52.546;13.348;2023-04-29T09:41:29;20.60;;;14.43;;
16522;SDS011;19889;52.546;13.348;2023-04-29T09:44:03;22.17;;;16.40;;
16522;SDS011;19889;52.546;13.348;2023-04-29T09:46:31;23.93;;;16.77;;
16522;SDS011;19889;52.546;13.348;2023-04-29T09:48:58;24.63;;;17.97;;
16522;SDS011;19889;52.546;13.348;2023-04-29T09:51:26;28.50;;;18.77;;
16522;SDS011;19889;52.546;13.348;2023-04-29T09:53:56;32.37;;;21.70;;
16522;SDS011;19889;52.546;13.348;2023-04-29T09:56:23;31.80;;;22.10;;
16522;SDS011;19889;52.546;13.348;2023-04-29T09:58:53;34.03;;;23.70;;
16522;SDS011;19889;52.546;13.348;2023-04-29T10:01:22;34.33;;;23.73;;
16522;SDS011;19889;52.546;13.348;2023-04-29T10:03:51;32.23;;;21.80;;
16522;SDS011;19889;52.546;13.348;2023-04-29T10:06:21;35.90;;;21.13;;
16522;SDS011;19889;52.546;13.348;2023-04-29T10:08:50;35.30;;;24.20;;
16522;SDS011;19889;52.546;13.348;2023-04-29T10:11:17;32.10;;;21.83;;
16522;SDS011;19889;52.546;13.348;2023-04-29T10:13:45;33.20;;;23.53;;
16522;SDS011;19889;52.546;13.348;2023-04-29T10:16:19;33.73;;;22.63;;
16522;SDS011;19889;52.546;13.348;2023-04-29T10:18:53;33.33;;;23.03;;
16522;SDS011;19889;52.546;13.348;2023-04-29T10:21:23;35.13;;;23.73;;
16522;SDS011;19889;52.546;13.348;2023-04-29T10:23:53;36.33;;;22.93;;
16522;SDS011;19889;52.546;13.348;2023-04-29T10:26:24;37.33;;;24.20;;
16522;SDS011;19889;52.546;13.348;2023-04-29T10:28:53;31.38;;;21.77;;
16522;SDS011;19889;52.546;13.348;2023-04-29T10:31:25;33.13;;;22.63;;
16522;SDS011;19889;52.546;13.348;2023-04-29T10:33:54;31.53;;;22.20;;
16522;SDS011;19889;52.546;13.348;2023-04-29T10:36:22;32.13;;;21.47;;
16522;SDS011;19889;52.546;13.348;2023-04-29T10:38:52;26.83;;;20.87;;
16522;SDS011;19889;52.546;13.348;2023-04-29T10:41:22;25.23;;;19.27;;
16522;SDS011;19889;52.546;13.348;2023-04-29T10:43:53;24.90;;;18.57;;
16522;SDS011;19889;52.546;13.348;2023-04-29T10:46:20;24.47;;;18.37;;
16522;SDS011;19889;52.546;13.348;2023-04-29T10:48:55;27.97;;;19.90;;
16522;SDS011;19889;52.546;13.348;2023-04-29T10:51:27;22.73;;;19.00;;
16522;SDS011;19889;52.546;13.348;2023-04-29T10:53:57;22.40;;;17.90;;
16522;SDS011;19889;52.546;13.348;2023-04-29T10:56:39;25.87;;;19.00;;
16522;SDS011;19889;52.546;13.348;2023-04-29T10:59:11;24.27;;;18.77;;
16522;SDS011;19889;52.546;13.348;2023-04-29T11:01:40;22.17;;;18.17;;
16522;SDS011;19889;52.546;13.348;2023-04-29T11:04:10;20.93;;;16.57;;
16522;SDS011;19889;52.546;13.348;2023-04-29T11:06:38;21.37;;;17.60;;
16522;SDS011;19889;52.546;13.348;2023-04-29T11:09:07;20.43;;;16.73;;
16522;SDS011;19889;52.546;13.348;2023-04-29T11:11:40;20.23;;;16.83;;
16522;SDS011;19889;52.546;13.348;2023-04-29T11:14:08;23.03;;;17.23;;
16522;SDS011;19889;52.546;13.348;2023-04-29T11:16:36;21.03;;;15.83;;
16522;SDS011;19889;52.546;13.348;2023-04-29T11:19:13;20.07;;;15.20;;
16522;SDS011;19889;52.546;13.348;2023-04-29T11:21:41;18.80;;;14.70;;
16522;SDS011;19889;52.546;13.348;2023-04-29T11:24:10;19.03;;;15.00;;
16522;SDS011;19889;52.546;13.348;2023-04-29T11:26:39;19.58;;;15.48;;
16522;SDS011;19889;52.546;13.348;2023-04-29T11:29:08;23.52;;;15.43;;
16522;SDS011;19889;52.546;13.348;2023-04-29T11:31:35;18.17;;;14.70;;
16522;SDS011;19889;52.546;13.348;2023-04-29T11:34:03;18.83;;;14.63;;
16522;SDS011;19889;52.546;13.348;2023-04-29T11:36:33;16.87;;;14.20;;
16522;SDS011;19889;52.546;13.348;2023-04-29T11:39:01;17.67;;;13.93;;
16522;SDS011;19889;52.546;13.348;2023-04-29T11:41:29;18.35;;;13.55;;
16522;SDS011;19889;52.546;13.348;2023-04-29T11:43:57;15.87;;;13.53;;
16522;SDS011;19889;52.546;13.348;2023-04-29T11:46:25;18.27;;;13.03;;
16522;SDS011;19889;52.546;13.348;2023-04-29T11:48:56;16.77;;;13.33;;
16522;SDS011;19889;52.546;13.348;2023-04-29T11:51:25;15.67;;;12.17;;
16522;SDS011;19889;52.546;13.348;2023-04-29T11:53:54;14.20;;;12.07;;
16522;SDS011;19889;52.546;13.348;2023-04-29T11:56:21;14.40;;;12.87;;
16522;SDS011;19889;52.546;13.348;2023-04-29T11:58:52;14.77;;;12.40;;
16522;SDS011;19889;52.546;13.348;2023-04-29T12:01:20;15.02;;;12.18;;
16522;SDS011;19889;52.546;13.348;2023-04-29T12:03:48;14.00;;;12.47;;
16522;SDS011;19889;52.546;13.348;2023-04-29T12:06:15;15.80;;;12.67;;
16522;SDS011;19889;52.546;13.348;2023-04-29T12:08:42;13.57;;;11.97;;
16522;SDS011;19889;52.546;13.348;2023-04-29T12:11:16;16.50;;;12.07;;
16522;SDS011;19889;52.546;13.348;2023-04-29T12:13:43;16.70;;;12.55;;
16522;SDS011;19889;52.546;13.348;2023-04-29T12:16:10;16.57;;;12.83;;
16522;SDS011;19889;52.546;13.348;2023-04-29T12:18:37;13.63;;;11.97;;
16522;SDS011;19889;52.546;13.348;2023-04-29T12:21:05;14.53;;;12.60;;
16522;SDS011;19889;52.546;13.348;2023-04-29T12:23:32;15.23;;;12.10;;
16522;SDS011;19889;52.546;13.348;2023-04-29T12:26:01;15.05;;;11.80;;
16522;SDS011;19889;52.546;13.348;2023-04-29T12:28:30;14.75;;;11.00;;
16522;SDS011;19889;52.546;13.348;2023-04-29T12:30:58;15.17;;;12.27;;
16522;SDS011;19889;52.546;13.348;2023-04-29T12:33:27;13.50;;;9.98;;
16522;SDS011;19889;52.546;13.348;2023-04-29T12:35:56;16.48;;;11.55;;
16522;SDS011;19889;52.546;13.348;2023-04-29T12:38:24;11.63;;;10.50;;
16522;SDS011;19889;52.546;13.348;2023-04-29T12:40:52;11.18;;;9.93;;
16522;SDS011;19889;52.546;13.348;2023-04-29T12:43:24;13.77;;;10.00;;
16522;SDS011;19889;52.546;13.348;2023-04-29T12:45:57;11.50;;;9.87;;
16522;SDS011;19889;52.546;13.348;2023-04-29T12:48:28;10.77;;;9.20;;
16522;SDS011;19889;52.546;13.348;2023-04-29T12:50:56;11.10;;;8.83;;
16522;SDS011;19889;52.546;13.348;2023-04-29T12:53:24;11.57;;;9.32;;
16522;SDS011;19889;52.546;13.348;2023-04-29T12:55:52;9.70;;;8.02;;
16522;SDS011;19889;52.546;13.348;2023-04-29T12:58:19;8.13;;;7.32;;
16522;SDS011;19889;52.546;13.348;2023-04-29T13:00:46;8.25;;;7.32;;
16522;SDS011;19889;52.546;13.348;2023-04-29T13:03:14;7.75;;;6.60;;
16522;SDS011;19889;52.546;13.348;2023-04-29T13:05:42;8.67;;;6.63;;
16522;SDS011;19889;52.546;13.348;2023-04-29T13:08:09;7.17;;;5.60;;
16522;SDS011;19889;52.546;13.348;2023-04-29T13:10:35;6.57;;;5.88;;
16522;SDS011;19889;52.546;13.348;2023-04-29T13:13:03;7.93;;;4.75;;
16522;SDS011;19889;52.546;13.348;2023-04-29T13:15:30;5.85;;;4.90;;
16522;SDS011;19889;52.546;13.348;2023-04-29T13:17:58;5.00;;;4.50;;
16522;SDS011;19889;52.546;13.348;2023-04-29T13:20:26;5.18;;;4.65;;
16522;SDS011;19889;52.546;13.348;2023-04-29T13:22:53;6.97;;;5.13;;
16522;SDS011;19889;52.546;13.348;2023-04-29T13:25:20;5.35;;;4.85;;
16522;SDS011;19889;52.546;13.348;2023-04-29T13:27:47;6.05;;;4.65;;
16522;SDS011;19889;52.546;13.348;2023-04-29T13:30:14;6.13;;;5.47;;
16522;SDS011;19889;52.546;13.348;2023-04-29T13:32:41;6.38;;;5.10;;
16522;SDS011;19889;52.546;13.348;2023-04-29T13:35:08;6.82;;;5.68;;
16522;SDS011;19889;52.546;13.348;2023-04-29T13:37:37;6.30;;;5.50;;
16522;SDS011;19889;52.546;13.348;2023-04-29T13:40:05;7.65;;;6.85;;
16522;SDS011;19889;52.546;13.348;2023-04-29T13:42:32;7.00;;;5.50;;
16522;SDS011;19889;52.546;13.348;2023-04-29T13:45:00;7.10;;;6.17;;
16522;SDS011;19889;52.546;13.348;2023-04-29T13:47:28;7.03;;;6.30;;
16522;SDS011;19889;52.546;13.348;2023-04-29T13:49:54;10.27;;;7.07;;
16522;SDS011;19889;52.546;13.348;2023-04-29T13:52:21;8.65;;;7.40;;
16522;SDS011;19889;52.546;13.348;2023-04-29T13:54:50;8.57;;;7.20;;
16522;SDS011;19889;52.546;13.348;2023-04-29T13:57:17;8.40;;;6.40;;
16522;SDS011;19889;52.546;13.348;2023-04-29T13:59:44;9.17;;;6.97;;
16522;SDS011;19889;52.546;13.348;2023-04-29T14:02:11;11.10;;;6.95;;
16522;SDS011;19889;52.546;13.348;2023-04-29T14:04:38;10.33;;;6.60;;
16522;SDS011;19889;52.546;13.348;2023-04-29T14:07:05;9.02;;;7.25;;
16522;SDS011;19889;52.546;13.348;2023-04-29T14:09:32;9.50;;;7.05;;
16522;SDS011;19889;52.546;13.348;2023-04-29T14:12:00;10.43;;;6.70;;
16522;SDS011;19889;52.546;13.348;2023-04-29T14:14:27;9.32;;;7.18;;
16522;SDS011;19889;52.546;13.348;2023-04-29T14:16:54;8.27;;;7.27;;
16522;SDS011;19889;52.546;13.348;2023-04-29T14:19:21;9.33;;;7.07;;
16522;SDS011;19889;52.546;13.348;2023-04-29T14:21:48;10.05;;;7.57;;
16522;SDS011;19889;52.546;13.348;2023-04-29T14:24:16;10.03;;;6.80;;
16522;SDS011;19889;52.546;13.348;2023-04-29T14:26:43;8.18;;;6.70;;
16522;SDS011;19889;52.546;13.348;2023-04-29T14:29:11;8.43;;;7.32;;
16522;SDS011;19889;52.546;13.348;2023-04-29T14:31:38;9.63;;;6.78;;